Terminal Aerodrome Forecast
Issued by NWS Wilmington, NC

Home | Current Version | Previous Version | Text Only | Print | Product List | Glossary On
Versions: 1 2 3 4 5 6 7 8 9 10 11 12 13 14 15 16 17
000
FTUS42 KILM 222300
TAFMYR
TAF
KMYR 222339Z 2300/2324 03004KT 6SM -RA SCT006 BKN035 OVC100
     FM230700 02008KT 6SM -RA OVC018
     FM231400 04010KT 4SM -RA BR BKN007 BKN040
     FM232000 03012KT 6SM -RA BKN010 OVC080
      AMD LTD TO CLD VIS AND WIND 2304/2311=

USA.gov is the U.S. government's official web portal to all federal, state and local government web resources and services.